Time;durP1;ratioP1;P1;durP2;ratioP2;P2;SDS_P1;SDS_P2;PMS_P1;PMS_P2;Temp;Humidity;BMP_temperature;BMP_pressure;BME280_temperature;BME280_humidity;BME280_pressure;Samples;Min_cycle;Max_cycle;Signal;HPM_P1;HPM_P2
2023/04/25 00:01:04;;;;;;;10.30;3.25;;;;;;;;;;5022110;28;20029;-62
2023/04/25 00:03:30;;;;;;;10.50;4.18;;;;;;;;;;5014682;28;20044;-62
2023/04/25 00:05:56;;;;;;;11.90;4.07;;;;;;;;;;5024343;28;20037;-63
2023/04/25 00:08:22;;;;;;;13.57;3.97;;;;;;;;;;5017221;28;20049;-63
2023/04/25 00:10:48;;;;;;;16.13;5.00;;;;;;;;;;5015204;28;20391;-63
2023/04/25 00:13:14;;;;;;;14.45;4.40;;;;;;;;;;5013283;28;20033;-62
2023/04/25 00:15:41;;;;;;;9.63;4.43;;;;;;;;;;5030110;28;20048;-62
2023/04/25 00:18:07;;;;;;;16.08;5.30;;;;;;;;;;5014628;28;20069;-62
2023/04/25 00:20:32;;;;;;;13.35;4.95;;;;;;;;;;5016625;28;20033;-62
2023/04/25 00:22:58;;;;;;;11.30;4.60;;;;;;;;;;5022266;28;20041;-62
2023/04/25 00:25:23;;;;;;;10.88;4.75;;;;;;;;;;5028889;28;20028;-62
2023/04/25 00:27:49;;;;;;;9.52;4.15;;;;;;;;;;5019687;28;20037;-62
2023/04/25 00:30:14;;;;;;;13.23;4.50;;;;;;;;;;5013587;28;20473;-63
2023/04/25 00:32:40;;;;;;;9.75;4.35;;;;;;;;;;5023961;28;20034;-62
2023/04/25 00:35:05;;;;;;;8.23;3.75;;;;;;;;;;5013691;28;20464;-62
2023/04/25 00:37:31;;;;;;;8.10;3.92;;;;;;;;;;5013231;28;20572;-63
2023/04/25 00:39:58;;;;;;;10.45;4.20;;;;;;;;;;5016090;28;20407;-62
2023/04/25 00:42:24;;;;;;;9.63;3.60;;;;;;;;;;5014110;28;20041;-63
2023/04/25 00:44:52;;;;;;;8.95;3.85;;;;;;;;;;5010955;28;20446;-62
2023/04/25 00:47:17;;;;;;;8.88;4.00;;;;;;;;;;5021445;28;20041;-63
2023/04/25 00:49:43;;;;;;;12.10;4.15;;;;;;;;;;5015413;28;20106;-62
2023/04/25 00:52:09;;;;;;;14.57;4.90;;;;;;;;;;5032112;28;20486;-63
2023/04/25 00:54:34;;;;;;;14.15;4.50;;;;;;;;;;5028350;28;20033;-63
2023/04/25 00:57:00;;;;;;;14.60;4.53;;;;;;;;;;5023018;28;20036;-62
2023/04/25 00:59:27;;;;;;;7.10;3.72;;;;;;;;;;5026010;28;20047;-63
2023/04/25 01:01:53;;;;;;;8.57;4.00;;;;;;;;;;5025404;28;20065;-62
2023/04/25 01:04:18;;;;;;;10.02;3.97;;;;;;;;;;5012208;28;20119;-62
2023/04/25 01:06:44;;;;;;;8.00;3.85;;;;;;;;;;5012340;28;20037;-62
2023/04/25 01:09:10;;;;;;;9.98;4.07;;;;;;;;;;5031986;28;20436;-63
2023/04/25 01:11:35;;;;;;;12.15;4.47;;;;;;;;;;5013545;28;20065;-63
2023/04/25 01:14:01;;;;;;;10.85;4.57;;;;;;;;;;5019379;28;20062;-63
2023/04/25 01:16:28;;;;;;;10.65;4.20;;;;;;;;;;5025262;28;20045;-62
2023/04/25 01:18:54;;;;;;;10.45;4.07;;;;;;;;;;5015626;28;20037;-62
2023/04/25 01:21:20;;;;;;;10.20;4.50;;;;;;;;;;5012758;28;20041;-64
2023/04/25 01:23:46;;;;;;;8.98;3.92;;;;;;;;;;5022549;28;20029;-62
2023/04/25 01:26:12;;;;;;;10.18;4.57;;;;;;;;;;5023396;28;20030;-62
2023/04/25 01:28:41;;;;;;;14.25;4.40;;;;;;;;;;5013431;28;20502;-62
2023/04/25 01:31:06;;;;;;;12.25;4.30;;;;;;;;;;5023092;28;20479;-62
2023/04/25 01:33:32;;;;;;;8.23;3.65;;;;;;;;;;5016162;28;20029;-63
2023/04/25 01:35:57;;;;;;;9.93;3.95;;;;;;;;;;5024222;28;20112;-63
2023/04/25 01:38:23;;;;;;;10.77;4.15;;;;;;;;;;5014155;28;20049;-63
2023/04/25 01:40:49;;;;;;;9.43;3.60;;;;;;;;;;5012132;28;20044;-62
2023/04/25 01:43:15;;;;;;;11.85;4.60;;;;;;;;;;5013705;28;20030;-63
2023/04/25 01:45:41;;;;;;;14.45;4.68;;;;;;;;;;5025098;28;20127;-63
2023/04/25 01:48:11;;;;;;;9.82;4.50;;;;;;;;;;5029399;28;20037;-62
2023/04/25 01:50:38;;;;;;;10.90;4.00;;;;;;;;;;5020824;28;20461;-63
2023/04/25 01:53:04;;;;;;;10.10;4.35;;;;;;;;;;5024885;28;20065;-62
2023/04/25 01:55:30;;;;;;;12.18;3.80;;;;;;;;;;5016832;28;20541;-61
2023/04/25 01:57:55;;;;;;;13.02;4.20;;;;;;;;;;5026377;28;20037;-62
2023/04/25 02:00:21;;;;;;;11.80;4.63;;;;;;;;;;5021248;28;20087;-61
2023/04/25 02:02:46;;;;;;;11.63;4.70;;;;;;;;;;5017758;28;20094;-63
2023/04/25 02:05:12;;;;;;;10.13;4.20;;;;;;;;;;5019832;28;20108;-62
2023/04/25 02:07:37;;;;;;;13.15;4.68;;;;;;;;;;5009245;28;20036;-63
2023/04/25 02:10:03;;;;;;;12.63;4.95;;;;;;;;;;5012247;28;20041;-63
2023/04/25 02:12:29;;;;;;;16.48;5.10;;;;;;;;;;5011885;28;20073;-63
2023/04/25 02:14:54;;;;;;;11.45;4.97;;;;;;;;;;5020472;28;20053;-62
2023/04/25 02:17:21;;;;;;;11.90;4.53;;;;;;;;;;5030701;28;20037;-62
2023/04/25 02:19:47;;;;;;;13.25;5.30;;;;;;;;;;5030549;28;20519;-62
2023/04/25 02:22:12;;;;;;;11.25;4.85;;;;;;;;;;5031384;28;20117;-62
2023/04/25 02:24:38;;;;;;;10.63;5.00;;;;;;;;;;5030445;28;20291;-63
2023/04/25 02:27:03;;;;;;;12.75;5.20;;;;;;;;;;5031880;28;20040;-62
2023/04/25 02:29:29;;;;;;;12.77;6.38;;;;;;;;;;5029317;28;20033;-63
2023/04/25 02:31:55;;;;;;;11.75;4.93;;;;;;;;;;5035248;28;20143;-62
2023/04/25 02:34:20;;;;;;;12.70;4.88;;;;;;;;;;5030858;28;20079;-61
2023/04/25 02:36:45;;;;;;;13.57;5.97;;;;;;;;;;5031114;28;20171;-63
2023/04/25 02:39:11;;;;;;;14.80;5.97;;;;;;;;;;5029142;28;20033;-61
2023/04/25 02:41:36;;;;;;;11.23;5.63;;;;;;;;;;5011631;28;20673;-61
2023/04/25 02:44:02;;;;;;;13.70;5.70;;;;;;;;;;5027165;28;20065;-63
2023/04/25 02:46:27;;;;;;;11.10;4.88;;;;;;;;;;5012500;28;20405;-62
2023/04/25 02:48:53;;;;;;;12.43;4.68;;;;;;;;;;5011879;28;20037;-63
2023/04/25 02:51:18;;;;;;;12.68;5.63;;;;;;;;;;5012215;28;20464;-63
2023/04/25 02:53:44;;;;;;;20.38;5.70;;;;;;;;;;5021255;28;20070;-63
2023/04/25 02:56:09;;;;;;;13.45;5.45;;;;;;;;;;5014416;28;20034;-63
2023/04/25 02:58:35;;;;;;;13.45;5.50;;;;;;;;;;5025387;28;20033;-63
2023/04/25 03:01:00;;;;;;;13.35;5.15;;;;;;;;;;5024739;28;20048;-62
2023/04/25 03:03:26;;;;;;;12.30;5.18;;;;;;;;;;5026621;28;20491;-63
2023/04/25 03:05:51;;;;;;;14.63;5.25;;;;;;;;;;5022018;28;20120;-63
2023/04/25 03:08:17;;;;;;;16.23;5.53;;;;;;;;;;5035201;28;20048;-63
2023/04/25 03:10:43;;;;;;;11.90;4.95;;;;;;;;;;5025792;28;20076;-63
2023/04/25 03:13:09;;;;;;;15.30;5.47;;;;;;;;;;5014172;28;20030;-63
2023/04/25 03:15:35;;;;;;;9.90;4.13;;;;;;;;;;5023565;28;20098;-62
2023/04/25 03:18:00;;;;;;;11.88;4.88;;;;;;;;;;5019692;28;20105;-63
2023/04/25 03:20:26;;;;;;;12.60;4.55;;;;;;;;;;5021843;28;20104;-62
2023/04/25 03:22:51;;;;;;;12.23;5.22;;;;;;;;;;5012219;28;20032;-63
2023/04/25 03:25:17;;;;;;;13.10;5.00;;;;;;;;;;5015458;28;20500;-63
2023/04/25 03:27:42;;;;;;;13.27;4.60;;;;;;;;;;5013267;28;20033;-63
2023/04/25 03:30:08;;;;;;;16.30;5.28;;;;;;;;;;5018939;28;20388;-62
2023/04/25 03:32:34;;;;;;;11.13;4.70;;;;;;;;;;5028531;28;20037;-61
2023/04/25 03:35:00;;;;;;;14.20;5.28;;;;;;;;;;5013785;28;20045;-61
2023/04/25 03:37:25;;;;;;;18.02;5.38;;;;;;;;;;5013770;28;20052;-62
2023/04/25 03:39:50;;;;;;;11.05;4.53;;;;;;;;;;5015357;28;20068;-62
2023/04/25 03:42:16;;;;;;;6.60;3.47;;;;;;;;;;5027794;28;20034;-61
2023/04/25 03:44:43;;;;;;;11.02;4.55;;;;;;;;;;5014090;28;20041;-61
2023/04/25 03:47:08;;;;;;;9.05;3.38;;;;;;;;;;5027350;28;20033;-61
2023/04/25 03:49:34;;;;;;;12.00;3.47;;;;;;;;;;5019078;28;20462;-61
2023/04/25 03:52:00;;;;;;;10.35;3.05;;;;;;;;;;5014949;28;20060;-61
2023/04/25 03:54:25;;;;;;;13.90;3.40;;;;;;;;;;5032098;28;20503;-61
2023/04/25 03:56:51;;;;;;;8.85;3.38;;;;;;;;;;5022401;28;20042;-62
2023/04/25 03:59:16;;;;;;;9.48;3.53;;;;;;;;;;5023261;28;20061;-62
2023/04/25 04:01:42;;;;;;;10.35;3.45;;;;;;;;;;5016329;28;20678;-61
2023/04/25 04:04:07;;;;;;;10.98;3.75;;;;;;;;;;5025666;28;20038;-62
2023/04/25 04:06:33;;;;;;;13.82;3.90;;;;;;;;;;5013326;28;20392;-61
2023/04/25 04:08:58;;;;;;;11.02;4.15;;;;;;;;;;5017151;28;20090;-61
2023/04/25 04:11:24;;;;;;;11.27;3.85;;;;;;;;;;5020386;28;20084;-62
2023/04/25 04:13:49;;;;;;;12.02;4.35;;;;;;;;;;5020505;28;20400;-61
2023/04/25 04:16:14;;;;;;;11.23;4.10;;;;;;;;;;5021592;28;20061;-61
2023/04/25 04:18:40;;;;;;;11.90;4.07;;;;;;;;;;5015804;28;20053;-63
2023/04/25 04:21:05;;;;;;;10.45;4.35;;;;;;;;;;5014079;28;20033;-62
2023/04/25 04:23:31;;;;;;;12.07;4.18;;;;;;;;;;5012738;28;20388;-62
2023/04/25 04:25:56;;;;;;;10.48;3.70;;;;;;;;;;5013525;28;20179;-63
2023/04/25 04:28:22;;;;;;;14.90;3.83;;;;;;;;;;5016776;28;20033;-63
2023/04/25 04:30:50;;;;;;;13.48;4.00;;;;;;;;;;5017291;28;20037;-62
2023/04/25 04:33:16;;;;;;;14.15;4.43;;;;;;;;;;5025959;28;20052;-62
2023/04/25 04:35:41;;;;;;;14.65;4.07;;;;;;;;;;5012093;28;20034;-61
2023/04/25 04:38:07;;;;;;;16.02;4.45;;;;;;;;;;5028730;28;20041;-62
2023/04/25 04:40:32;;;;;;;12.38;4.22;;;;;;;;;;5023703;28;20049;-63
2023/04/25 04:42:58;;;;;;;13.93;4.32;;;;;;;;;;5024034;28;20049;-61
2023/04/25 04:45:23;;;;;;;8.90;5.00;;;;;;;;;;5013942;28;20385;-63
2023/04/25 04:47:49;;;;;;;14.60;4.65;;;;;;;;;;5013082;28;20114;-62
2023/04/25 04:50:15;;;;;;;14.68;3.92;;;;;;;;;;5012688;28;20041;-62
2023/04/25 04:52:41;;;;;;;12.90;3.90;;;;;;;;;;5022483;28;20121;-62
2023/04/25 04:55:07;;;;;;;14.57;4.32;;;;;;;;;;5014715;28;20436;-63
2023/04/25 04:57:34;;;;;;;15.90;4.28;;;;;;;;;;5016363;28;20029;-63
2023/04/25 05:00:00;;;;;;;19.92;3.97;;;;;;;;;;5026610;28;20117;-62
2023/04/25 05:02:25;;;;;;;15.07;4.93;;;;;;;;;;5024194;28;20100;-63
2023/04/25 05:04:52;;;;;;;11.15;4.43;;;;;;;;;;5028222;28;20084;-63
2023/04/25 05:07:18;;;;;;;13.88;4.43;;;;;;;;;;5029688;28;20034;-64
2023/04/25 05:09:44;;;;;;;14.38;4.63;;;;;;;;;;5026827;28;20451;-64
2023/04/25 05:12:09;;;;;;;14.15;4.40;;;;;;;;;;5026706;28;20029;-64
2023/04/25 05:14:35;;;;;;;18.35;5.25;;;;;;;;;;5029638;28;20071;-64
2023/04/25 05:17:00;;;;;;;14.98;4.63;;;;;;;;;;5027088;28;20535;-63
2023/04/25 05:19:26;;;;;;;13.73;5.18;;;;;;;;;;5022358;28;20038;-64
2023/04/25 05:21:52;;;;;;;11.90;4.90;;;;;;;;;;5031145;28;20029;-63
2023/04/25 05:24:17;;;;;;;17.52;5.35;;;;;;;;;;5029634;28;20044;-64
2023/04/25 05:26:42;;;;;;;15.98;4.95;;;;;;;;;;5031576;28;20044;-65
2023/04/25 05:29:08;;;;;;;16.10;5.70;;;;;;;;;;5032592;28;20033;-64
2023/04/25 05:31:35;;;;;;;14.02;5.18;;;;;;;;;;5030332;28;20423;-64
2023/04/25 05:34:01;;;;;;;18.25;5.85;;;;;;;;;;5032991;28;20147;-64
2023/04/25 05:36:27;;;;;;;18.85;5.45;;;;;;;;;;5032149;28;20057;-64
2023/04/25 05:38:52;;;;;;;22.80;5.78;;;;;;;;;;5039800;28;20057;-66
2023/04/25 05:41:18;;;;;;;16.70;6.13;;;;;;;;;;5032285;28;20030;-66
2023/04/25 05:43:46;;;;;;;17.05;5.65;;;;;;;;;;5031078;28;20037;-67
2023/04/25 05:46:12;;;;;;;23.35;6.38;;;;;;;;;;5030123;28;20026;-67
2023/04/25 05:48:38;;;;;;;17.52;5.90;;;;;;;;;;5025742;28;20029;-66
2023/04/25 05:51:03;;;;;;;18.45;6.15;;;;;;;;;;5032184;28;20036;-65
2023/04/25 05:53:29;;;;;;;16.67;5.72;;;;;;;;;;5031271;28;20036;-66
2023/04/25 05:55:54;;;;;;;19.20;6.50;;;;;;;;;;5031415;28;20100;-66
2023/04/25 05:58:20;;;;;;;15.20;5.55;;;;;;;;;;5032059;28;20033;-66
2023/04/25 06:00:46;;;;;;;18.83;6.28;;;;;;;;;;5031059;28;20037;-66
2023/04/25 06:03:13;;;;;;;16.33;5.82;;;;;;;;;;5031701;28;20464;-68
2023/04/25 06:05:38;;;;;;;22.58;6.70;;;;;;;;;;5030972;28;20029;-67
2023/04/25 06:08:04;;;;;;;18.55;6.57;;;;;;;;;;5031882;28;20029;-67
2023/04/25 06:10:29;;;;;;;18.40;5.78;;;;;;;;;;5031369;28;20033;-67
2023/04/25 06:12:55;;;;;;;23.73;6.80;;;;;;;;;;5033761;28;20024;-65
2023/04/25 06:15:20;;;;;;;17.83;5.85;;;;;;;;;;5049031;28;20036;-67
2023/04/25 06:17:45;;;;;;;19.33;6.68;;;;;;;;;;5027219;28;20104;-67
2023/04/25 06:20:11;;;;;;;21.00;6.45;;;;;;;;;;5031418;28;20033;-66
2023/04/25 06:22:36;;;;;;;17.65;6.70;;;;;;;;;;5030618;28;20068;-67
2023/04/25 06:25:04;;;;;;;16.05;6.03;;;;;;;;;;5031254;28;20041;-67
2023/04/25 06:27:29;;;;;;;21.38;6.45;;;;;;;;;;5031428;28;20025;-67
2023/04/25 06:29:55;;;;;;;20.25;6.05;;;;;;;;;;5030664;28;20033;-66
2023/04/25 06:32:20;;;;;;;18.67;5.68;;;;;;;;;;5030688;28;20381;-66
2023/04/25 06:34:45;;;;;;;19.48;5.78;;;;;;;;;;5033450;28;20100;-67
2023/04/25 06:37:11;;;;;;;16.98;5.18;;;;;;;;;;5035190;28;20045;-68
2023/04/25 06:39:36;;;;;;;13.82;4.97;;;;;;;;;;5019513;28;20080;-67
2023/04/25 06:42:02;;;;;;;15.52;4.90;;;;;;;;;;5011473;28;20033;-65
2023/04/25 06:44:29;;;;;;;15.40;4.82;;;;;;;;;;5011730;28;20045;-65
2023/04/25 06:46:54;;;;;;;15.40;4.35;;;;;;;;;;5010867;28;20026;-65
2023/04/25 06:49:20;;;;;;;11.93;4.22;;;;;;;;;;5013592;28;20113;-64
2023/04/25 06:51:45;;;;;;;12.23;4.13;;;;;;;;;;5030232;28;20033;-64
2023/04/25 06:54:10;;;;;;;12.70;4.25;;;;;;;;;;5031184;28;20037;-64
2023/04/25 06:56:36;;;;;;;15.90;4.30;;;;;;;;;;5030476;28;20025;-64
2023/04/25 06:59:01;;;;;;;13.45;4.15;;;;;;;;;;5031396;28;20033;-65
2023/04/25 07:01:27;;;;;;;13.27;4.22;;;;;;;;;;5031218;28;20021;-65
2023/04/25 07:03:52;;;;;;;14.63;4.00;;;;;;;;;;5030155;28;20052;-65
2023/04/25 07:06:17;;;;;;;13.07;4.85;;;;;;;;;;5030493;28;20499;-62
2023/04/25 07:08:43;;;;;;;14.50;4.22;;;;;;;;;;5037282;28;20379;-63
2023/04/25 07:11:08;;;;;;;20.25;3.92;;;;;;;;;;5029698;28;20063;-63
2023/04/25 07:13:34;;;;;;;15.25;4.15;;;;;;;;;;5030878;28;20033;-64
2023/04/25 07:16:00;;;;;;;12.00;3.83;;;;;;;;;;5030297;28;20164;-64
2023/04/25 07:18:25;;;;;;;12.98;3.47;;;;;;;;;;5031211;28;20116;-63
2023/04/25 07:20:50;;;;;;;12.95;3.55;;;;;;;;;;5027261;28;20033;-63
2023/04/25 07:23:16;;;;;;;12.43;3.65;;;;;;;;;;5031197;28;20034;-63
2023/04/25 07:25:41;;;;;;;12.95;3.90;;;;;;;;;;5027698;28;20050;-64
2023/04/25 07:28:07;;;;;;;13.43;3.85;;;;;;;;;;5021846;28;20033;-62
2023/04/25 07:30:33;;;;;;;17.38;3.97;;;;;;;;;;5011014;28;20491;-63
2023/04/25 07:32:59;;;;;;;14.20;4.75;;;;;;;;;;5010328;28;20034;-64
2023/04/25 07:35:24;;;;;;;13.38;3.97;;;;;;;;;;5021853;28;20404;-64
2023/04/25 07:37:50;;;;;;;19.38;4.43;;;;;;;;;;5028316;28;20049;-64
2023/04/25 07:40:16;;;;;;;13.98;3.72;;;;;;;;;;5024026;28;20033;-63
2023/04/25 07:42:41;;;;;;;10.75;3.65;;;;;;;;;;5027021;28;20042;-65
2023/04/25 07:45:07;;;;;;;21.65;4.13;;;;;;;;;;5031566;28;20043;-64
2023/04/25 07:47:33;;;;;;;17.55;4.00;;;;;;;;;;5025811;28;20522;-66
2023/04/25 07:49:58;;;;;;;12.77;3.95;;;;;;;;;;5031139;28;20068;-67
2023/04/25 07:52:24;;;;;;;11.35;3.92;;;;;;;;;;5032858;28;20041;-64
2023/04/25 07:54:49;;;;;;;8.98;3.72;;;;;;;;;;5032698;28;20033;-63
2023/04/25 07:57:16;;;;;;;9.75;3.22;;;;;;;;;;5030790;28;20384;-64
2023/04/25 07:59:42;;;;;;;11.20;3.10;;;;;;;;;;5033535;28;20099;-64
2023/04/25 08:02:07;;;;;;;7.95;3.15;;;;;;;;;;5034321;28;20472;-63
2023/04/25 08:04:33;;;;;;;12.18;3.60;;;;;;;;;;5032814;28;20037;-64
2023/04/25 08:06:58;;;;;;;12.48;3.33;;;;;;;;;;5033126;28;20395;-65
2023/04/25 08:09:24;;;;;;;9.07;2.80;;;;;;;;;;5034246;28;20029;-65
2023/04/25 08:11:50;;;;;;;10.38;3.13;;;;;;;;;;5029601;28;20048;-65
2023/04/25 08:14:15;;;;;;;8.02;2.63;;;;;;;;;;5026845;28;20399;-65
2023/04/25 08:16:40;;;;;;;8.68;3.30;;;;;;;;;;5032123;28;20037;-65
2023/04/25 08:19:06;;;;;;;13.35;3.50;;;;;;;;;;5036938;28;20036;-65
2023/04/25 08:21:32;;;;;;;12.75;3.20;;;;;;;;;;5033262;28;20033;-67
2023/04/25 08:23:58;;;;;;;7.55;3.08;;;;;;;;;;5032093;28;20110;-65
2023/04/25 08:26:24;;;;;;;8.23;3.47;;;;;;;;;;5032174;28;20438;-65
2023/04/25 08:28:49;;;;;;;9.75;3.50;;;;;;;;;;5030921;28;20034;-65
2023/04/25 08:31:15;;;;;;;11.48;3.70;;;;;;;;;;5033338;28;20424;-64
2023/04/25 08:33:40;;;;;;;12.23;3.38;;;;;;;;;;5031837;28;20038;-66
2023/04/25 08:36:06;;;;;;;11.20;3.17;;;;;;;;;;5031865;28;20375;-63
2023/04/25 08:38:31;;;;;;;10.43;3.40;;;;;;;;;;5022145;28;20045;-65
2023/04/25 08:41:00;;;;;;;12.98;3.03;;;;;;;;;;5033782;28;20700;-66
2023/04/25 08:43:28;;;;;;;13.02;3.15;;;;;;;;;;5033246;28;20056;-67
2023/04/25 08:45:57;;;;;;;11.05;2.63;;;;;;;;;;5032202;28;20025;-67
2023/04/25 08:48:26;;;;;;;8.02;2.60;;;;;;;;;;5032878;28;20034;-66
2023/04/25 08:50:54;;;;;;;8.63;2.40;;;;;;;;;;5032202;28;20460;-66
2023/04/25 08:53:26;;;;;;;11.43;2.28;;;;;;;;;;5032737;28;20057;-72
2023/04/25 08:55:56;;;;;;;10.07;2.70;;;;;;;;;;5032115;28;20033;-74
2023/04/25 08:58:22;;;;;;;8.65;2.50;;;;;;;;;;5033413;28;20487;-66
2023/04/25 09:00:49;;;;;;;10.23;2.90;;;;;;;;;;5032492;28;20037;-66
2023/04/25 09:03:15;;;;;;;7.80;2.40;;;;;;;;;;5032063;28;20037;-64
2023/04/25 09:05:41;;;;;;;8.50;2.35;;;;;;;;;;5032366;28;20030;-64
2023/04/25 09:08:07;;;;;;;10.02;2.28;;;;;;;;;;5032547;28;20029;-64
2023/04/25 09:10:33;;;;;;;8.07;2.40;;;;;;;;;;5030814;28;20091;-65
2023/04/25 09:13:10;;;;;;;10.75;2.28;;;;;;;;;;5035562;28;20093;-64
2023/04/25 09:15:51;;;;;;;7.95;2.60;;;;;;;;;;5037809;28;20057;-65
2023/04/25 09:18:28;;;;;;;9.00;2.78;;;;;;;;;;5035710;28;20029;-65
2023/04/25 09:21:12;;;;;;;10.30;2.38;;;;;;;;;;5031939;28;20037;-64
2023/04/25 09:23:41;;;;;;;8.57;2.60;;;;;;;;;;5029180;28;20057;-63
2023/04/25 09:26:08;;;;;;;8.20;2.30;;;;;;;;;;5028646;28;20037;-63
2023/04/25 09:28:34;;;;;;;7.97;2.10;;;;;;;;;;5025065;28;20493;-64
2023/04/25 09:31:00;;;;;;;4.28;1.85;;;;;;;;;;5021573;28;20112;-63
2023/04/25 09:33:35;;;;;;;5.90;2.40;;;;;;;;;;5027962;28;20112;-66
2023/04/25 09:36:07;;;;;;;5.55;1.92;;;;;;;;;;5031344;28;20487;-65
2023/04/25 09:38:41;;;;;;;10.00;1.98;;;;;;;;;;5027571;28;20050;-65
2023/04/25 09:41:07;;;;;;;5.03;1.92;;;;;;;;;;5029079;28;20135;-67
2023/04/25 09:43:33;;;;;;;5.43;1.77;;;;;;;;;;5032046;28;20484;-64
2023/04/25 09:46:00;;;;;;;7.57;2.13;;;;;;;;;;5031595;28;20128;-66
2023/04/25 09:48:27;;;;;;;5.38;1.75;;;;;;;;;;5032431;28;20033;-66
2023/04/25 09:51:13;;;;;;;4.72;1.77;;;;;;;;;;5017715;28;20037;-64
2023/04/25 09:53:40;;;;;;;5.72;1.90;;;;;;;;;;5023060;28;20061;-65
2023/04/25 09:56:08;;;;;;;8.57;1.90;;;;;;;;;;5030036;28;20079;-67
2023/04/25 09:58:35;;;;;;;8.07;1.65;;;;;;;;;;5031799;28;20034;-66
2023/04/25 10:01:03;;;;;;;6.25;1.80;;;;;;;;;;5030757;28;20604;-65
2023/04/25 10:03:31;;;;;;;3.50;1.65;;;;;;;;;;5030749;28;20029;-66
2023/04/25 10:06:02;;;;;;;4.22;1.55;;;;;;;;;;5030537;28;20033;-63
2023/04/25 10:08:36;;;;;;;4.95;1.40;;;;;;;;;;5030598;28;20025;-63
2023/04/25 10:11:05;;;;;;;6.35;1.80;;;;;;;;;;5028427;28;20148;-63
2023/04/25 10:13:31;;;;;;;5.90;1.85;;;;;;;;;;5031565;28;20086;-62
2023/04/25 10:16:04;;;;;;;4.55;1.45;;;;;;;;;;5030795;28;20116;-65
2023/04/25 10:18:31;;;;;;;4.85;1.60;;;;;;;;;;5031692;28;20033;-67
2023/04/25 10:21:02;;;;;;;4.07;1.50;;;;;;;;;;5030924;28;20033;-66
2023/04/25 10:23:30;;;;;;;5.22;1.60;;;;;;;;;;5030736;28;20037;-66
2023/04/25 10:25:56;;;;;;;6.13;1.67;;;;;;;;;;5030799;28;20029;-64
2023/04/25 10:28:22;;;;;;;5.82;2.00;;;;;;;;;;5031525;28;20513;-64
2023/04/25 10:31:08;;;;;;;5.28;1.63;;;;;;;;;;5027719;28;20116;-64
2023/04/25 10:33:38;;;;;;;4.65;1.50;;;;;;;;;;5031407;28;20029;-66
2023/04/25 10:36:15;;;;;;;8.63;1.60;;;;;;;;;;5027476;28;20056;-67
2023/04/25 10:38:44;;;;;;;5.63;2.20;;;;;;;;;;5031651;28;20049;-69
2023/04/25 10:41:11;;;;;;;6.75;1.70;;;;;;;;;;5031008;28;20060;-68
2023/04/25 10:43:38;;;;;;;8.02;1.70;;;;;;;;;;5021792;28;20724;-63
2023/04/25 10:46:15;;;;;;;6.15;1.90;;;;;;;;;;5012938;28;20049;-64
2023/04/25 10:48:52;;;;;;;5.93;2.05;;;;;;;;;;5031497;28;20360;-64
2023/04/25 10:51:20;;;;;;;4.70;1.73;;;;;;;;;;5031234;28;20025;-64
2023/04/25 10:54:09;;;;;;;5.05;1.85;;;;;;;;;;5030913;28;20055;-65
2023/04/25 10:56:40;;;;;;;7.63;1.75;;;;;;;;;;5031305;28;20452;-67
2023/04/25 10:59:06;;;;;;;6.28;1.90;;;;;;;;;;5029460;28;20033;-68
2023/04/25 11:01:46;;;;;;;6.00;1.90;;;;;;;;;;5031087;28;20455;-67
2023/04/25 11:04:31;;;;;;;6.97;1.80;;;;;;;;;;5030831;28;20033;-67
2023/04/25 11:07:06;;;;;;;4.38;1.52;;;;;;;;;;5030635;28;20091;-65
2023/04/25 11:09:36;;;;;;;5.72;1.70;;;;;;;;;;5030663;28;20407;-66
2023/04/25 11:12:01;;;;;;;4.43;1.60;;;;;;;;;;5030247;28;20033;-65
2023/04/25 11:14:27;;;;;;;5.20;1.55;;;;;;;;;;5031327;28;20388;-66
2023/04/25 11:16:57;;;;;;;4.53;1.70;;;;;;;;;;5030385;28;20037;-66
2023/04/25 11:19:23;;;;;;;6.43;1.90;;;;;;;;;;5034486;28;20036;-65
2023/04/25 11:21:49;;;;;;;5.10;1.55;;;;;;;;;;5033979;28;20034;-65
2023/04/25 11:24:16;;;;;;;7.75;1.75;;;;;;;;;;5034680;28;20087;-67
2023/04/25 11:26:43;;;;;;;5.20;1.40;;;;;;;;;;5034692;28;20037;-66
2023/04/25 11:29:08;;;;;;;4.38;1.30;;;;;;;;;;5034135;28;20066;-65
2023/04/25 11:31:34;;;;;;;6.35;1.90;;;;;;;;;;5023325;28;20105;-66
2023/04/25 11:33:59;;;;;;;2.70;1.33;;;;;;;;;;5014074;28;20030;-67
2023/04/25 11:36:26;;;;;;;2.53;1.25;;;;;;;;;;5014807;28;20033;-67
2023/04/25 11:38:52;;;;;;;4.18;1.40;;;;;;;;;;5024119;28;20033;-65
2023/04/25 11:41:19;;;;;;;2.40;1.10;;;;;;;;;;5034468;28;20380;-68
2023/04/25 11:43:44;;;;;;;2.20;1.15;;;;;;;;;;5030947;28;20258;-67
2023/04/25 11:46:11;;;;;;;2.05;1.20;;;;;;;;;;5030532;28;20326;-66
2023/04/25 11:48:38;;;;;;;3.80;1.20;;;;;;;;;;5032221;28;20036;-67
2023/04/25 11:51:04;;;;;;;4.35;1.30;;;;;;;;;;5032630;28;20029;-67
2023/04/25 11:53:29;;;;;;;2.40;1.30;;;;;;;;;;5031919;28;20394;-66
2023/04/25 11:55:55;;;;;;;2.88;1.23;;;;;;;;;;5033438;28;20087;-66
2023/04/25 11:58:21;;;;;;;3.83;1.30;;;;;;;;;;5034129;28;20124;-65
2023/04/25 12:00:46;;;;;;;4.93;1.35;;;;;;;;;;5034113;28;20112;-67
2023/04/25 12:03:12;;;;;;;4.60;1.27;;;;;;;;;;5033308;28;20041;-66
2023/04/25 12:05:37;;;;;;;4.00;1.67;;;;;;;;;;5034439;28;20033;-64
2023/04/25 12:08:11;;;;;;;4.60;1.50;;;;;;;;;;5031395;28;20033;-64
2023/04/25 12:10:39;;;;;;;3.72;1.55;;;;;;;;;;5034144;28;20041;-67
2023/04/25 12:13:19;;;;;;;3.25;1.50;;;;;;;;;;5031439;28;20038;-65
2023/04/25 12:15:44;;;;;;;3.15;1.25;;;;;;;;;;5032005;28;20116;-64
2023/04/25 12:18:10;;;;;;;4.55;1.35;;;;;;;;;;5033152;28;20643;-65
2023/04/25 12:20:35;;;;;;;3.30;1.15;;;;;;;;;;5033942;28;20040;-65
2023/04/25 12:23:05;;;;;;;2.03;1.15;;;;;;;;;;5032853;28;20068;-66
2023/04/25 12:25:42;;;;;;;3.20;1.17;;;;;;;;;;5031969;28;20037;-64
2023/04/25 12:28:14;;;;;;;5.75;1.30;;;;;;;;;;5030767;28;20402;-63
2023/04/25 12:30:52;;;;;;;8.65;1.98;;;;;;;;;;5033033;28;20033;-64
2023/04/25 12:33:17;;;;;;;6.63;1.13;;;;;;;;;;5033525;28;20109;-67
2023/04/25 12:35:43;;;;;;;7.53;1.33;;;;;;;;;;5033153;28;20108;-67
2023/04/25 12:38:08;;;;;;;3.60;1.20;;;;;;;;;;5032989;28;20060;-66
2023/04/25 12:40:33;;;;;;;3.47;0.98;;;;;;;;;;5032174;28;20029;-65
2023/04/25 12:42:59;;;;;;;4.13;1.13;;;;;;;;;;5031888;28;20492;-65
2023/04/25 12:45:24;;;;;;;1.75;1.10;;;;;;;;;;5031095;28;20464;-66
2023/04/25 12:47:50;;;;;;;3.65;1.10;;;;;;;;;;5032189;28;20051;-65
2023/04/25 12:50:15;;;;;;;4.22;1.25;;;;;;;;;;5030731;28;20071;-64
2023/04/25 12:52:41;;;;;;;2.53;1.20;;;;;;;;;;5027710;28;20041;-64
2023/04/25 12:55:06;;;;;;;3.00;1.27;;;;;;;;;;5027732;28;20483;-65
2023/04/25 12:57:31;;;;;;;3.05;1.20;;;;;;;;;;5031974;28;20040;-66
2023/04/25 12:59:57;;;;;;;4.15;1.60;;;;;;;;;;5029498;28;20555;-64
2023/04/25 13:02:22;;;;;;;2.80;1.13;;;;;;;;;;5033217;28;20042;-66
2023/04/25 13:04:48;;;;;;;1.95;1.30;;;;;;;;;;5031663;28;20142;-66
2023/04/25 13:07:13;;;;;;;6.75;1.60;;;;;;;;;;5032082;28;20532;-66
2023/04/25 13:09:39;;;;;;;4.80;1.58;;;;;;;;;;5033050;28;20025;-66
2023/04/25 13:12:04;;;;;;;5.10;1.70;;;;;;;;;;5032087;28;20480;-66
2023/04/25 13:14:30;;;;;;;3.78;1.50;;;;;;;;;;5030005;28;20029;-62
2023/04/25 13:16:56;;;;;;;3.22;1.30;;;;;;;;;;5028088;28;20036;-64
2023/04/25 13:19:21;;;;;;;4.35;1.27;;;;;;;;;;5013266;28;20032;-64
2023/04/25 13:21:46;;;;;;;1.67;1.10;;;;;;;;;;5030324;28;20040;-63
2023/04/25 13:24:12;;;;;;;3.03;1.45;;;;;;;;;;5042848;28;20167;-65
2023/04/25 13:26:37;;;;;;;4.97;1.65;;;;;;;;;;5040142;28;20033;-64
2023/04/25 13:29:03;;;;;;;6.00;1.70;;;;;;;;;;5036976;28;20100;-63
2023/04/25 13:31:29;;;;;;;3.60;1.50;;;;;;;;;;5042372;28;20047;-64
2023/04/25 13:33:55;;;;;;;6.93;1.77;;;;;;;;;;5035231;28;20039;-66
2023/04/25 13:36:20;;;;;;;3.45;1.60;;;;;;;;;;5032225;28;20125;-63
2023/04/25 13:38:47;;;;;;;8.05;1.92;;;;;;;;;;5031538;28;20456;-63
2023/04/25 13:41:17;;;;;;;4.38;1.60;;;;;;;;;;5034017;28;20069;-64
2023/04/25 13:43:43;;;;;;;3.33;1.33;;;;;;;;;;5030922;28;20503;-65
2023/04/25 13:46:08;;;;;;;4.35;1.55;;;;;;;;;;5030117;28;20029;-65
2023/04/25 13:48:33;;;;;;;2.83;1.27;;;;;;;;;;5033019;28;20430;-62
2023/04/25 13:50:59;;;;;;;4.97;1.65;;;;;;;;;;5038677;28;20356;-63
2023/04/25 13:53:24;;;;;;;5.40;1.80;;;;;;;;;;5030857;28;20029;-63
2023/04/25 13:55:50;;;;;;;6.95;1.70;;;;;;;;;;5031308;28;20420;-63
2023/04/25 13:58:15;;;;;;;5.10;1.70;;;;;;;;;;5033026;28;20017;-65
2023/04/25 14:00:43;;;;;;;5.03;2.22;;;;;;;;;;5034687;28;20033;-65
2023/04/25 14:03:09;;;;;;;3.15;1.67;;;;;;;;;;5033636;28;20393;-65
2023/04/25 14:05:37;;;;;;;4.75;1.90;;;;;;;;;;5032066;28;20523;-68
2023/04/25 14:08:04;;;;;;;3.80;1.70;;;;;;;;;;5030832;28;20036;-65
2023/04/25 14:10:30;;;;;;;5.78;1.70;;;;;;;;;;5031884;28;20036;-66
2023/04/25 14:12:55;;;;;;;6.38;1.63;;;;;;;;;;5029738;28;20117;-64
2023/04/25 14:15:21;;;;;;;4.28;1.65;;;;;;;;;;5031614;28;20038;-65
2023/04/25 14:17:48;;;;;;;3.80;1.35;;;;;;;;;;5032510;28;20037;-65
2023/04/25 14:20:13;;;;;;;3.20;1.63;;;;;;;;;;5030894;28;20029;-64
2023/04/25 14:22:42;;;;;;;2.85;1.20;;;;;;;;;;5031847;28;20090;-65
2023/04/25 14:25:08;;;;;;;3.53;1.25;;;;;;;;;;5030034;28;20067;-64
2023/04/25 14:27:34;;;;;;;2.97;1.25;;;;;;;;;;5028530;28;20064;-63
2023/04/25 14:29:59;;;;;;;5.38;1.20;;;;;;;;;;5030511;28;20061;-67
2023/04/25 14:32:25;;;;;;;4.57;1.40;;;;;;;;;;5025506;28;20034;-66